createdAt,value
2018-12-11T00:00:22.380Z,94291.61
2018-12-11T00:02:54.542Z,94290.06
2018-12-11T00:05:26.530Z,94288.28
2018-12-11T00:07:58.713Z,94294.80
2018-12-11T00:10:31.638Z,94297.60
2018-12-11T00:13:04.204Z,94295.20
2018-12-11T00:15:36.535Z,94297.65
2018-12-11T00:18:08.400Z,94302.02
2018-12-11T00:20:40.333Z,94308.33
2018-12-11T00:23:13.296Z,94321.39
2018-12-11T00:25:45.132Z,94315.55
2018-12-11T00:28:17.137Z,94329.91
2018-12-11T00:30:49.015Z,94323.63
2018-12-11T00:33:21.162Z,94328.48
2018-12-11T00:35:53.836Z,94325.92
2018-12-11T00:38:25.900Z,94325.97
2018-12-11T00:40:58.734Z,94327.77
2018-12-11T00:43:30.836Z,94327.72
2018-12-11T00:46:03.333Z,94330.55
2018-12-11T00:48:35.514Z,94323.91
2018-12-11T00:51:08.451Z,94322.17
2018-12-11T00:53:40.932Z,94323.31
2018-12-11T00:56:13.439Z,94323.88
2018-12-11T00:58:45.212Z,94319.12
2018-12-11T01:01:17.184Z,94325.48
2018-12-11T01:03:49.437Z,94320.95
2018-12-11T01:06:23.508Z,94322.61
2018-12-11T01:08:56.535Z,94321.70
2018-12-11T01:11:28.791Z,94325.50
2018-12-11T01:14:01.252Z,94322.37
2018-12-11T01:16:32.943Z,94327.44
2018-12-11T01:19:06.243Z,94329.55
2018-12-11T01:21:38.944Z,94328.72
2018-12-11T01:24:10.792Z,94325.33
2018-12-11T01:26:43.005Z,94330.11
2018-12-11T01:29:16.212Z,94319.07
2018-12-11T01:31:48.467Z,94325.16
2018-12-11T01:34:20.466Z,94319.38
2018-12-11T01:36:52.861Z,94323.02
2018-12-11T01:39:24.730Z,94324.02
2018-12-11T01:41:56.661Z,94328.55
2018-12-11T01:44:28.860Z,94320.04
2018-12-11T01:47:00.780Z,94322.44
2018-12-11T01:49:32.856Z,94315.24
2018-12-11T01:52:05.289Z,94312.65
2018-12-11T01:54:37.648Z,94313.25
2018-12-11T01:57:09.918Z,94312.02
2018-12-11T01:59:42.190Z,94307.17
2018-12-11T02:02:13.911Z,94306.11
2018-12-11T02:04:45.754Z,94305.50
2018-12-11T02:07:17.794Z,94303.91
2018-12-11T02:09:49.966Z,94299.48
2018-12-11T02:12:21.812Z,94307.02
2018-12-11T02:14:54.149Z,94310.70
2018-12-11T02:17:26.838Z,94313.05
2018-12-11T02:19:59.166Z,94310.52
2018-12-11T02:22:31.080Z,94313.30
2018-12-11T02:25:02.787Z,94315.55
2018-12-11T02:27:34.980Z,94304.91
2018-12-11T02:30:07.118Z,94303.32
2018-12-11T02:32:39.468Z,94306.75
2018-12-11T02:35:11.581Z,94296.79
2018-12-11T02:37:44.745Z,94290.38
2018-12-11T02:40:16.847Z,94289.70
2018-12-11T02:42:49.119Z,94283.45
2018-12-11T02:45:21.404Z,94283.95
2018-12-11T02:47:53.480Z,94275.59
2018-12-11T02:50:25.468Z,94276.48
2018-12-11T02:52:57.539Z,94290.70
2018-12-11T02:55:30.600Z,94284.00
2018-12-11T02:58:02.753Z,94290.64
2018-12-11T03:00:34.912Z,94291.64
2018-12-11T03:03:07.020Z,94288.27
2018-12-11T03:05:39.058Z,94287.09
2018-12-11T03:08:10.824Z,94285.48
2018-12-11T03:10:42.671Z,94281.91
2018-12-11T03:13:14.490Z,94281.27
2018-12-11T03:15:46.292Z,94275.72
2018-12-11T03:18:18.372Z,94285.87
2018-12-11T03:20:50.991Z,94285.34
2018-12-11T03:23:22.992Z,94299.00
2018-12-11T03:25:55.109Z,94305.41
2018-12-11T03:28:27.210Z,94307.47
2018-12-11T03:30:59.266Z,94308.37
2018-12-11T03:33:30.924Z,94315.91
2018-12-11T03:36:02.800Z,94322.05
2018-12-11T03:38:36.195Z,94322.99
2018-12-11T03:41:08.488Z,94325.19
2018-12-11T03:43:40.592Z,94330.62
2018-12-11T03:46:12.856Z,94334.50
2018-12-11T03:48:45.168Z,94320.56
2018-12-11T03:51:17.122Z,94317.72
2018-12-11T03:53:49.553Z,94320.24
2018-12-11T03:56:21.914Z,94322.54
2018-12-11T03:58:53.949Z,94330.30
2018-12-11T04:01:26.154Z,94334.62
2018-12-11T04:03:58.000Z,94334.83
2018-12-11T04:06:30.000Z,94338.83
2018-12-11T04:09:01.890Z,94338.61
2018-12-11T04:11:33.820Z,94335.50
2018-12-11T04:14:06.267Z,94335.92
2018-12-11T04:16:38.358Z,94338.84
2018-12-11T04:19:10.477Z,94337.89
2018-12-11T04:21:43.602Z,94339.06
2018-12-11T04:24:15.792Z,94345.75
2018-12-11T04:26:48.272Z,94354.00
2018-12-11T04:29:20.304Z,94359.01
2018-12-11T04:31:52.456Z,94362.21
2018-12-11T04:34:24.990Z,94361.75
2018-12-11T04:36:57.054Z,94367.61
2018-12-11T04:39:33.767Z,94362.44
2018-12-11T04:42:04.069Z,94365.38
2018-12-11T04:44:36.201Z,94363.77
2018-12-11T04:47:08.384Z,94364.31
2018-12-11T04:49:40.829Z,94363.47
2018-12-11T04:52:14.231Z,94368.97
2018-12-11T04:54:47.039Z,94366.41
2018-12-11T04:57:18.999Z,94369.88
2018-12-11T04:59:51.639Z,94372.23
2018-12-11T05:02:24.279Z,94378.52
2018-12-11T05:04:55.979Z,94377.47
2018-12-11T05:07:28.014Z,94377.66
2018-12-11T05:10:00.136Z,94373.20
2018-12-11T05:12:32.705Z,94378.70
2018-12-11T05:15:04.450Z,94382.67
2018-12-11T05:17:35.874Z,94377.41
2018-12-11T05:20:07.795Z,94375.89
2018-12-11T05:22:39.249Z,94377.21
2018-12-11T05:25:11.792Z,94385.52
2018-12-11T05:27:45.082Z,94393.05
2018-12-11T05:30:16.984Z,94395.95
2018-12-11T05:32:48.961Z,94403.78
2018-12-11T05:35:20.717Z,94410.31
2018-12-11T05:37:52.994Z,94410.71
2018-12-11T05:40:25.229Z,94422.80
2018-12-11T05:42:57.317Z,94422.27
2018-12-11T05:45:29.525Z,94424.41
2018-12-11T05:48:01.738Z,94428.41
2018-12-11T05:50:34.721Z,94429.93
2018-12-11T05:53:06.694Z,94430.91
2018-12-11T05:55:39.018Z,94430.45
2018-12-11T05:58:11.211Z,94437.72
2018-12-11T06:00:43.031Z,94438.19
2018-12-11T06:03:14.563Z,94441.59
2018-12-11T06:05:46.634Z,94443.41
2018-12-11T06:08:19.542Z,94445.63
2018-12-11T06:10:51.867Z,94448.45
2018-12-11T06:13:23.771Z,94445.78
2018-12-11T06:15:55.614Z,94444.39
2018-12-11T06:18:28.165Z,94448.19
2018-12-11T06:21:00.070Z,94449.48
2018-12-11T06:23:32.582Z,94449.23
2018-12-11T06:26:05.398Z,94448.95
2018-12-11T06:28:37.526Z,94451.70
2018-12-11T06:31:10.231Z,94449.63
2018-12-11T06:33:42.222Z,94449.83
2018-12-11T06:36:14.334Z,94453.77
2018-12-11T06:38:47.175Z,94449.02
2018-12-11T06:41:19.120Z,94447.02
2018-12-11T06:43:51.064Z,94449.73
2018-12-11T06:46:23.190Z,94449.77
2018-12-11T06:48:54.984Z,94441.61
2018-12-11T06:51:27.124Z,94445.58
2018-12-11T06:53:59.127Z,94446.36
2018-12-11T06:56:31.347Z,94457.11
2018-12-11T06:59:03.321Z,94457.02
2018-12-11T07:01:35.407Z,94461.34
2018-12-11T07:04:07.540Z,94461.81
2018-12-11T07:06:39.706Z,94464.30
2018-12-11T07:09:12.112Z,94474.66
2018-12-11T07:11:44.433Z,94480.02
2018-12-11T07:14:16.836Z,94467.70
2018-12-11T07:16:49.073Z,94473.30
2018-12-11T07:19:21.184Z,94475.53
2018-12-11T07:21:53.363Z,94471.97
2018-12-11T07:24:26.082Z,94477.81
2018-12-11T07:26:58.263Z,94484.31
2018-12-11T07:29:30.608Z,94481.05
2018-12-11T07:32:03.450Z,94487.63
2018-12-11T07:34:35.657Z,94483.52
2018-12-11T07:37:08.419Z,94480.38
2018-12-11T07:39:40.910Z,94494.03
2018-12-11T07:42:13.550Z,94496.59
2018-12-11T07:44:46.055Z,94495.20
2018-12-11T07:47:18.351Z,94487.14
2018-12-11T07:49:51.621Z,94489.81
2018-12-11T07:52:23.801Z,94493.36
2018-12-11T07:54:55.715Z,94494.41
2018-12-11T07:57:28.694Z,94498.02
2018-12-11T08:00:01.543Z,94498.93
2018-12-11T08:02:34.623Z,94500.61
2018-12-11T08:05:07.587Z,94494.05
2018-12-11T08:07:39.501Z,94500.22
2018-12-11T08:10:11.653Z,94500.28
2018-12-11T08:12:43.846Z,94498.59
2018-12-11T08:15:15.820Z,94493.07
2018-12-11T08:17:48.280Z,94500.25
2018-12-11T08:20:20.195Z,94510.88
2018-12-11T08:22:52.792Z,94496.94
2018-12-11T08:25:25.166Z,94500.93
2018-12-11T08:27:57.616Z,94503.73
2018-12-11T08:30:29.744Z,94489.20
2018-12-11T08:33:01.720Z,94500.27
2018-12-11T08:35:34.430Z,94501.16
2018-12-11T08:38:06.757Z,94500.36
2018-12-11T08:40:39.041Z,94495.73
2018-12-11T08:43:11.542Z,94491.61
2018-12-11T08:45:43.682Z,94501.75
2018-12-11T08:48:16.051Z,94494.44
2018-12-11T08:50:49.017Z,94485.61
2018-12-11T08:53:20.842Z,94491.89
2018-12-11T08:55:53.027Z,94486.77
2018-12-11T08:58:25.145Z,94481.33
2018-12-11T09:00:57.629Z,94487.77
2018-12-11T09:03:30.688Z,94481.20
2018-12-11T09:06:02.676Z,94481.63
2018-12-11T09:08:34.858Z,94489.93
2018-12-11T09:11:07.254Z,94481.13
2018-12-11T09:13:39.826Z,94481.34
2018-12-11T09:16:12.535Z,94472.34
2018-12-11T09:18:44.462Z,94475.48
2018-12-11T09:21:16.479Z,94474.61
2018-12-11T09:23:48.385Z,94470.88
2018-12-11T09:26:20.262Z,94475.16
2018-12-11T09:28:52.203Z,94476.66
2018-12-11T09:31:24.619Z,94472.61
2018-12-11T09:33:56.372Z,94472.09
2018-12-11T09:36:28.741Z,94467.86
2018-12-11T09:39:00.622Z,94469.79
2018-12-11T09:41:37.502Z,94478.43
2018-12-11T09:44:09.408Z,94472.91
2018-12-11T09:46:42.399Z,94483.64
2018-12-11T09:49:14.782Z,94493.03
2018-12-11T09:51:51.795Z,94482.72
2018-12-11T09:54:23.875Z,94480.62
2018-12-11T09:56:55.815Z,94475.78
2018-12-11T09:59:29.034Z,94475.61
2018-12-11T10:02:01.048Z,94476.56
2018-12-11T10:04:33.921Z,94479.09
2018-12-11T10:07:07.334Z,94478.08
2018-12-11T10:09:39.655Z,94480.78
2018-12-11T10:12:11.722Z,94480.69
2018-12-11T10:14:43.690Z,94479.37
2018-12-11T10:17:15.715Z,94474.32
2018-12-11T10:19:47.853Z,94477.34
2018-12-11T10:22:20.292Z,94476.72
2018-12-11T10:24:52.209Z,94467.44
2018-12-11T10:27:24.551Z,94457.20
2018-12-11T10:29:56.753Z,94466.36
2018-12-11T10:32:29.532Z,94471.20
2018-12-11T10:35:01.600Z,94471.55
2018-12-11T10:37:33.794Z,94473.24
2018-12-11T10:40:06.257Z,94474.77
2018-12-11T10:42:38.157Z,94474.87
2018-12-11T10:45:10.215Z,94470.57
2018-12-11T10:47:42.731Z,94461.55
2018-12-11T10:50:14.665Z,94456.95
2018-12-11T10:52:46.963Z,94452.31
2018-12-11T10:55:19.402Z,94440.61
2018-12-11T10:57:51.361Z,94454.45
2018-12-11T11:00:28.572Z,94446.22
2018-12-11T11:03:06.105Z,94442.48
2018-12-11T11:05:38.617Z,94451.81
2018-12-11T11:08:10.684Z,94449.70
2018-12-11T11:10:42.930Z,94446.75
2018-12-11T11:13:15.112Z,94428.52
2018-12-11T11:15:48.036Z,94446.72
2018-12-11T11:18:20.228Z,94448.39
2018-12-11T11:20:53.093Z,94438.95
2018-12-11T11:23:25.681Z,94443.55
2018-12-11T11:25:57.578Z,94437.76
2018-12-11T11:28:29.546Z,94441.41
2018-12-11T11:31:02.201Z,94444.80
2018-12-11T11:33:35.086Z,94441.29
2018-12-11T11:36:07.463Z,94445.37
2018-12-11T11:38:39.637Z,94435.91
2018-12-11T11:41:11.730Z,94442.95
2018-12-11T11:43:44.003Z,94445.33
2018-12-11T11:46:16.152Z,94444.16
2018-12-11T11:48:48.674Z,94436.81
2018-12-11T11:51:20.745Z,94448.58
2018-12-11T11:53:52.934Z,94442.63
2018-12-11T11:56:24.999Z,94456.48
2018-12-11T11:58:57.027Z,94451.72
2018-12-11T12:01:29.785Z,94461.15
2018-12-11T12:04:02.408Z,94468.13
2018-12-11T12:06:34.927Z,94470.36
2018-12-11T12:09:08.708Z,94469.78
2018-12-11T12:11:40.604Z,94472.56
2018-12-11T12:14:12.879Z,94482.02
2018-12-11T12:16:44.923Z,94480.70
2018-12-11T12:19:16.803Z,94481.70
2018-12-11T12:21:48.971Z,94486.36
2018-12-11T12:24:21.027Z,94487.03
2018-12-11T12:26:52.974Z,94495.52
2018-12-11T12:29:24.892Z,94493.91
2018-12-11T12:31:57.243Z,94494.28
2018-12-11T12:34:29.408Z,94484.88
2018-12-11T12:37:01.890Z,94491.77
2018-12-11T12:39:34.550Z,94492.23
2018-12-11T12:42:06.998Z,94494.53
2018-12-11T12:44:39.330Z,94493.83
2018-12-11T12:47:11.328Z,94497.29
2018-12-11T12:49:43.449Z,94494.58
2018-12-11T12:52:15.549Z,94499.45
2018-12-11T12:54:49.264Z,94496.97
2018-12-11T12:57:21.489Z,94495.14
2018-12-11T12:59:54.841Z,94494.72
2018-12-11T13:02:26.828Z,94506.76
2018-12-11T13:04:59.195Z,94499.64
2018-12-11T13:07:31.418Z,94499.45
2018-12-11T13:10:03.168Z,94502.71
2018-12-11T13:12:35.580Z,94504.87
2018-12-11T13:15:08.482Z,94508.25
2018-12-11T13:17:40.456Z,94514.47
2018-12-11T13:20:12.515Z,94512.29
2018-12-11T13:22:44.390Z,94516.89
2018-12-11T13:25:16.474Z,94511.28
2018-12-11T13:27:48.887Z,94520.81
2018-12-11T13:30:21.756Z,94522.05
2018-12-11T13:32:53.967Z,94515.10
2018-12-11T13:35:26.804Z,94514.23
2018-12-11T13:37:58.827Z,94510.91
2018-12-11T13:40:31.252Z,94516.64
2018-12-11T13:43:03.553Z,94520.50
2018-12-11T13:45:35.320Z,94515.31
2018-12-11T13:48:07.509Z,94509.69
2018-12-11T13:50:39.960Z,94501.08
2018-12-11T13:53:11.927Z,94496.16
2018-12-11T13:55:45.290Z,94500.97
2018-12-11T13:58:18.118Z,94505.18
2018-12-11T14:00:50.428Z,94502.11
2018-12-11T14:03:23.510Z,94502.92
2018-12-11T14:05:55.771Z,94505.09
2018-12-11T14:08:28.055Z,94504.52
2018-12-11T14:10:59.997Z,94509.48
2018-12-11T14:13:32.342Z,94506.61
2018-12-11T14:16:04.504Z,94510.02
2018-12-11T14:18:37.611Z,94510.74
2018-12-11T14:21:09.840Z,94514.78
2018-12-11T14:23:42.090Z,94516.77
2018-12-11T14:26:14.292Z,94528.28
2018-12-11T14:28:46.550Z,94534.45
2018-12-11T14:31:18.927Z,94537.80
2018-12-11T14:33:50.916Z,94546.25
2018-12-11T14:36:22.950Z,94547.32
2018-12-11T14:38:55.145Z,94541.68
2018-12-11T14:41:27.405Z,94541.38
2018-12-11T14:43:59.402Z,94538.06
2018-12-11T14:46:31.963Z,94541.16
2018-12-11T14:49:03.982Z,94547.09
2018-12-11T14:51:37.276Z,94550.38
2018-12-11T14:54:11.150Z,94560.73
2018-12-11T14:56:44.119Z,94553.22
2018-12-11T14:59:17.465Z,94559.08
2018-12-11T15:01:49.649Z,94565.06
2018-12-11T15:04:22.127Z,94558.80
2018-12-11T15:06:54.431Z,94561.59
2018-12-11T15:09:31.922Z,94560.09
2018-12-11T15:12:04.263Z,94561.05
2018-12-11T15:14:36.595Z,94558.98
2018-12-11T15:17:08.996Z,94560.69
2018-12-11T15:19:41.506Z,94563.92
2018-12-11T15:22:13.890Z,94562.90
2018-12-11T15:24:46.309Z,94562.74
2018-12-11T15:27:18.818Z,94566.65
2018-12-11T15:29:50.684Z,94562.02
2018-12-11T15:32:23.207Z,94564.25
2018-12-11T15:34:56.181Z,94560.02
2018-12-11T15:37:28.168Z,94560.26
2018-12-11T15:40:00.818Z,94561.66
2018-12-11T15:42:32.343Z,94563.88
2018-12-11T15:45:04.834Z,94560.53
2018-12-11T15:47:36.893Z,94573.46
2018-12-11T15:50:09.913Z,94571.93
2018-12-11T15:52:42.820Z,94577.13
2018-12-11T15:55:15.081Z,94576.07
2018-12-11T15:57:47.292Z,94578.14
2018-12-11T16:00:20.871Z,94581.07
2018-12-11T16:02:53.402Z,94583.01
2018-12-11T16:05:26.175Z,94580.25
2018-12-11T16:07:58.458Z,94582.59
2018-12-11T16:10:30.521Z,94585.85
2018-12-11T16:13:02.495Z,94586.27
2018-12-11T16:15:34.815Z,94585.18
2018-12-11T16:18:07.055Z,94579.66
2018-12-11T16:20:39.511Z,94582.47
2018-12-11T16:23:12.572Z,94582.53
2018-12-11T16:25:45.540Z,94589.22
2018-12-11T16:28:18.467Z,94592.66
2018-12-11T16:30:51.373Z,94590.65
2018-12-11T16:33:23.676Z,94594.46
2018-12-11T16:35:55.831Z,94600.39
2018-12-11T16:38:28.229Z,94601.46
2018-12-11T16:41:00.179Z,94605.09
2018-12-11T16:43:32.360Z,94602.01
2018-12-11T16:46:05.079Z,94602.89
2018-12-11T16:48:37.404Z,94606.41
2018-12-11T16:51:09.774Z,94606.88
2018-12-11T16:53:42.800Z,94612.71
2018-12-11T16:56:14.987Z,94611.58
2018-12-11T16:58:47.266Z,94618.56
2018-12-11T17:01:19.540Z,94613.58
2018-12-11T17:03:51.984Z,94609.86
2018-12-11T17:06:24.337Z,94612.19
2018-12-11T17:08:56.626Z,94613.66
2018-12-11T17:11:28.723Z,94617.98
2018-12-11T17:14:01.122Z,94618.29
2018-12-11T17:16:33.219Z,94615.00
2018-12-11T17:19:05.822Z,94611.70
2018-12-11T17:21:38.378Z,94612.19
2018-12-11T17:24:11.808Z,94610.14
2018-12-11T17:26:44.423Z,94604.34
2018-12-11T17:29:16.447Z,94613.61
2018-12-11T17:31:49.350Z,94616.55
2018-12-11T17:34:21.842Z,94621.20
2018-12-11T17:36:54.279Z,94615.98
2018-12-11T17:39:27.487Z,94622.28
2018-12-11T17:42:00.602Z,94618.92
2018-12-11T17:44:33.390Z,94627.22
2018-12-11T17:47:05.928Z,94629.88
2018-12-11T17:49:37.745Z,94623.48
2018-12-11T17:52:09.962Z,94631.01
2018-12-11T17:54:43.132Z,94634.12
2018-12-11T17:57:15.720Z,94637.30
2018-12-11T17:59:48.895Z,94640.72
2018-12-11T18:02:27.314Z,94641.87
2018-12-11T18:05:00.505Z,94642.28
2018-12-11T18:07:32.954Z,94642.48
2018-12-11T18:10:07.444Z,94651.56
2018-12-11T18:12:39.661Z,94651.79
2018-12-11T18:15:15.364Z,94655.33
2018-12-11T18:17:48.019Z,94651.08
2018-12-11T18:20:20.330Z,94655.30
2018-12-11T18:22:53.821Z,94659.20
2018-12-11T18:25:26.417Z,94657.89
2018-12-11T18:27:59.032Z,94662.27
2018-12-11T18:30:31.684Z,94663.47
2018-12-11T18:33:03.562Z,94664.16
2018-12-11T18:35:35.856Z,94655.52
2018-12-11T18:38:08.358Z,94660.14
2018-12-11T18:40:40.870Z,94660.02
2018-12-11T18:43:14.315Z,94663.52
2018-12-11T18:45:46.653Z,94669.34
2018-12-11T18:48:18.663Z,94670.94
2018-12-11T18:50:50.731Z,94674.28
2018-12-11T18:53:23.470Z,94669.09
2018-12-11T18:55:55.910Z,94667.55
2018-12-11T18:58:34.106Z,94667.66
2018-12-11T19:01:03.270Z,94675.14
2018-12-11T19:03:37.842Z,94666.73
2018-12-11T19:06:11.477Z,94674.96
2018-12-11T19:08:44.308Z,94677.27
2018-12-11T19:11:16.842Z,94674.59
2018-12-11T19:13:51.277Z,94676.32
2018-12-11T19:16:24.895Z,94675.84
2018-12-11T19:18:56.781Z,94674.30
2018-12-11T19:21:29.176Z,94669.63
2018-12-11T19:24:29.057Z,94676.27
2018-12-11T19:27:01.358Z,94673.23
2018-12-11T19:29:34.197Z,94679.03
2018-12-11T19:32:06.816Z,94682.80
2018-12-11T19:34:38.621Z,94682.25
2018-12-11T19:37:11.066Z,94681.16
2018-12-11T19:39:43.540Z,94679.96
2018-12-11T19:42:15.771Z,94684.22
2018-12-11T19:44:48.605Z,94684.68
2018-12-11T19:47:20.811Z,94684.23
2018-12-11T19:49:52.463Z,94687.28
2018-12-11T19:52:25.015Z,94681.41
2018-12-11T19:54:57.609Z,94691.21
2018-12-11T19:57:30.349Z,94687.73
2018-12-11T20:00:03.030Z,94692.56
2018-12-11T20:02:35.434Z,94691.77
2018-12-11T20:05:09.516Z,94690.91
2018-12-11T20:07:42.987Z,94686.42
2018-12-11T20:10:18.532Z,94688.25
2018-12-11T20:12:51.069Z,94685.12
2018-12-11T20:15:23.471Z,94684.64
2018-12-11T20:17:58.543Z,94687.57
2018-12-11T20:20:31.877Z,94688.61
2018-12-11T20:23:04.410Z,94689.20
2018-12-11T20:25:37.931Z,94690.05
2018-12-11T20:28:10.912Z,94685.38
2018-12-11T20:30:44.336Z,94692.63
2018-12-11T20:33:17.825Z,94689.95
2018-12-11T20:35:50.602Z,94691.94
2018-12-11T20:38:23.955Z,94691.32
2018-12-11T20:40:57.732Z,94689.69
2018-12-11T20:43:30.491Z,94697.17
2018-12-11T20:46:05.115Z,94692.78
2018-12-11T20:48:37.714Z,94699.34
2018-12-11T20:51:10.239Z,94697.64
2018-12-11T20:53:42.853Z,94709.52
2018-12-11T20:56:15.215Z,94702.16
2018-12-11T20:58:48.111Z,94703.05
2018-12-11T21:01:20.297Z,94705.86
2018-12-11T21:03:52.656Z,94706.88
2018-12-11T21:06:25.289Z,94704.85
2018-12-11T21:08:57.765Z,94707.66
2018-12-11T21:11:30.739Z,94710.09
2018-12-11T21:14:03.691Z,94715.31
2018-12-11T21:16:36.386Z,94714.33
2018-12-11T21:19:08.834Z,94722.72
2018-12-11T21:21:41.740Z,94723.37
2018-12-11T21:24:13.958Z,94715.41
2018-12-11T21:26:47.252Z,94714.60
2018-12-11T21:29:20.310Z,94716.36
2018-12-11T21:31:52.975Z,94717.95
2018-12-11T21:34:25.230Z,94719.86
2018-12-11T21:36:57.572Z,94723.89
2018-12-11T21:39:30.177Z,94724.91
2018-12-11T21:42:03.222Z,94726.97
2018-12-11T21:44:36.299Z,94720.12
2018-12-11T21:47:08.946Z,94725.09
2018-12-11T21:49:41.246Z,94721.09
2018-12-11T21:52:13.024Z,94720.84
2018-12-11T21:54:45.940Z,94728.02
2018-12-11T21:57:18.213Z,94726.19
2018-12-11T21:59:50.689Z,94725.17
2018-12-11T22:02:22.597Z,94725.00
2018-12-11T22:04:55.288Z,94723.23
2018-12-11T22:07:27.390Z,94728.67
2018-12-11T22:09:59.373Z,94719.97
2018-12-11T22:12:31.818Z,94715.77
2018-12-11T22:15:04.217Z,94719.09
2018-12-11T22:17:36.525Z,94707.64
2018-12-11T22:20:09.729Z,94707.94
2018-12-11T22:22:41.736Z,94711.68
2018-12-11T22:25:14.120Z,94712.69
2018-12-11T22:27:46.104Z,94709.13
2018-12-11T22:30:18.292Z,94706.45
2018-12-11T22:32:50.372Z,94714.09
2018-12-11T22:35:23.498Z,94707.91
2018-12-11T22:37:55.542Z,94705.67
2018-12-11T22:40:27.267Z,94706.91
2018-12-11T22:42:59.307Z,94704.37
2018-12-11T22:45:31.379Z,94705.72
2018-12-11T22:48:04.473Z,94701.04
2018-12-11T22:50:36.299Z,94697.87
2018-12-11T22:53:08.745Z,94699.16
2018-12-11T22:55:40.799Z,94699.92
2018-12-11T22:58:12.871Z,94692.73
2018-12-11T23:00:48.474Z,94696.62
2018-12-11T23:03:21.973Z,94700.28
2018-12-11T23:05:54.064Z,94701.02
2018-12-11T23:08:26.457Z,94699.10
2018-12-11T23:10:58.687Z,94695.94
2018-12-11T23:13:31.398Z,94694.47
2018-12-11T23:16:03.573Z,94695.16
2018-12-11T23:18:36.143Z,94692.87
2018-12-11T23:21:08.143Z,94692.22
2018-12-11T23:23:40.258Z,94694.09
2018-12-11T23:26:12.218Z,94704.31
2018-12-11T23:28:44.553Z,94706.09
2018-12-11T23:31:16.157Z,94701.47
2018-12-11T23:33:48.179Z,94705.09
2018-12-11T23:36:20.251Z,94704.16
2018-12-11T23:38:52.403Z,94704.05
2018-12-11T23:41:24.604Z,94704.55
2018-12-11T23:43:56.722Z,94709.54
2018-12-11T23:46:28.494Z,94712.44
2018-12-11T23:49:00.170Z,94717.72
2018-12-11T23:51:31.914Z,94721.09
2018-12-11T23:54:03.796Z,94719.30
2018-12-11T23:56:36.371Z,94722.08
2018-12-11T23:59:08.512Z,94726.75
